sensor_id;sensor_type;location;lat;lon;timestamp;temperature;humidity
37408;DHT22;24866;50.248;8.252;2023-03-01T00:01:26;-1.40;1.00
37408;DHT22;24866;50.248;8.252;2023-03-01T00:03:57;-1.60;1.00
37408;DHT22;24866;50.248;8.252;2023-03-01T00:06:27;-1.70;1.00
37408;DHT22;24866;50.248;8.252;2023-03-01T00:08:59;-1.80;1.00
37408;DHT22;24866;50.248;8.252;2023-03-01T00:11:31;-1.70;1.00
37408;DHT22;24866;50.248;8.252;2023-03-01T00:14:02;-1.50;1.00
37408;DHT22;24866;50.248;8.252;2023-03-01T00:16:37;-1.50;1.00
37408;DHT22;24866;50.248;8.252;2023-03-01T00:19:11;-1.30;99.90
37408;DHT22;24866;50.248;8.252;2023-03-01T00:21:41;-1.20;1.00
37408;DHT22;24866;50.248;8.252;2023-03-01T00:24:13;-1.20;1.00
37408;DHT22;24866;50.248;8.252;2023-03-01T00:26:43;-1.40;1.00
37408;DHT22;24866;50.248;8.252;2023-03-01T00:29:14;-1.50;1.00
37408;DHT22;24866;50.248;8.252;2023-03-01T00:31:44;-1.40;1.00
37408;DHT22;24866;50.248;8.252;2023-03-01T00:34:14;-1.30;1.00
37408;DHT22;24866;50.248;8.252;2023-03-01T00:36:44;-1.80;1.00
37408;DHT22;24866;50.248;8.252;2023-03-01T00:39:16;-2.30;1.00
37408;DHT22;24866;50.248;8.252;2023-03-01T00:41:46;-2.40;1.00
37408;DHT22;24866;50.248;8.252;2023-03-01T00:44:16;-2.00;1.00
37408;DHT22;24866;50.248;8.252;2023-03-01T00:46:46;-1.70;99.90
37408;DHT22;24866;50.248;8.252;2023-03-01T00:49:16;-1.60;99.90
37408;DHT22;24866;50.248;8.252;2023-03-01T00:51:45;-1.80;99.90
37408;DHT22;24866;50.248;8.252;2023-03-01T00:54:17;-1.70;1.00
37408;DHT22;24866;50.248;8.252;2023-03-01T00:56:47;-1.70;99.90
37408;DHT22;24866;50.248;8.252;2023-03-01T00:59:17;-1.70;1.00
37408;DHT22;24866;50.248;8.252;2023-03-01T01:01:47;-1.70;1.00
37408;DHT22;24866;50.248;8.252;2023-03-01T01:04:17;-1.70;1.00
37408;DHT22;24866;50.248;8.252;2023-03-01T01:06:47;-1.70;1.00
37408;DHT22;24866;50.248;8.252;2023-03-01T01:09:19;-1.70;1.00
37408;DHT22;24866;50.248;8.252;2023-03-01T01:11:50;-1.70;1.00
37408;DHT22;24866;50.248;8.252;2023-03-01T01:14:20;-1.70;1.00
37408;DHT22;24866;50.248;8.252;2023-03-01T01:16:50;-1.60;1.00
37408;DHT22;24866;50.248;8.252;2023-03-01T01:19:21;-1.60;1.00
37408;DHT22;24866;50.248;8.252;2023-03-01T01:21:52;-1.90;1.00
37408;DHT22;24866;50.248;8.252;2023-03-01T01:24:23;-2.10;1.00
37408;DHT22;24866;50.248;8.252;2023-03-01T01:26:53;-2.10;1.00
37408;DHT22;24866;50.248;8.252;2023-03-01T01:29:24;-2.00;1.00
37408;DHT22;24866;50.248;8.252;2023-03-01T01:31:54;-1.90;1.00
37408;DHT22;24866;50.248;8.252;2023-03-01T01:34:24;-1.70;1.00
37408;DHT22;24866;50.248;8.252;2023-03-01T01:36:54;-1.70;1.00
37408;DHT22;24866;50.248;8.252;2023-03-01T01:39:26;-1.70;1.00
37408;DHT22;24866;50.248;8.252;2023-03-01T01:41:56;-1.90;1.00
37408;DHT22;24866;50.248;8.252;2023-03-01T01:44:28;-2.20;1.00
37408;DHT22;24866;50.248;8.252;2023-03-01T01:47:01;-2.20;1.00
37408;DHT22;24866;50.248;8.252;2023-03-01T01:49:36;-2.00;1.00
37408;DHT22;24866;50.248;8.252;2023-03-01T01:52:10;-1.90;1.00
37408;DHT22;24866;50.248;8.252;2023-03-01T01:54:46;-1.80;1.00
37408;DHT22;24866;50.248;8.252;2023-03-01T01:57:28;-2.00;1.00
37408;DHT22;24866;50.248;8.252;2023-03-01T02:00:04;-2.10;1.00
37408;DHT22;24866;50.248;8.252;2023-03-01T02:02:35;-2.20;1.00
37408;DHT22;24866;50.248;8.252;2023-03-01T02:05:11;-2.40;1.00
37408;DHT22;24866;50.248;8.252;2023-03-01T02:07:42;-2.20;1.00
37408;DHT22;24866;50.248;8.252;2023-03-01T02:10:15;-2.20;1.00
37408;DHT22;24866;50.248;8.252;2023-03-01T02:12:45;-2.30;1.00
37408;DHT22;24866;50.248;8.252;2023-03-01T02:15:16;-2.40;1.00
37408;DHT22;24866;50.248;8.252;2023-03-01T02:17:46;-2.30;1.00
37408;DHT22;24866;50.248;8.252;2023-03-01T02:20:21;-2.20;1.00
37408;DHT22;24866;50.248;8.252;2023-03-01T02:22:53;-2.30;1.00
37408;DHT22;24866;50.248;8.252;2023-03-01T02:25:31;-2.30;1.00
37408;DHT22;24866;50.248;8.252;2023-03-01T02:28:10;-2.20;1.00
37408;DHT22;24866;50.248;8.252;2023-03-01T02:30:44;-2.20;1.00
37408;DHT22;24866;50.248;8.252;2023-03-01T02:33:30;-2.10;1.00
37408;DHT22;24866;50.248;8.252;2023-03-01T02:36:02;-1.90;1.00
37408;DHT22;24866;50.248;8.252;2023-03-01T02:38:33;-2.10;1.00
37408;DHT22;24866;50.248;8.252;2023-03-01T02:41:04;-2.20;1.00
37408;DHT22;24866;50.248;8.252;2023-03-01T02:43:35;-2.30;1.00
37408;DHT22;24866;50.248;8.252;2023-03-01T02:46:12;-2.20;1.00
37408;DHT22;24866;50.248;8.252;2023-03-01T02:48:45;-1.90;1.00
37408;DHT22;24866;50.248;8.252;2023-03-01T02:51:38;-2.50;1.00
37408;DHT22;24866;50.248;8.252;2023-03-01T02:54:18;-2.50;1.00
37408;DHT22;24866;50.248;8.252;2023-03-01T02:56:49;-2.60;1.00
37408;DHT22;24866;50.248;8.252;2023-03-01T02:59:22;-2.70;1.00
37408;DHT22;24866;50.248;8.252;2023-03-01T03:01:55;-2.50;1.00
37408;DHT22;24866;50.248;8.252;2023-03-01T03:04:25;-2.40;1.00
37408;DHT22;24866;50.248;8.252;2023-03-01T03:06:55;-2.40;1.00
37408;DHT22;24866;50.248;8.252;2023-03-01T03:09:25;-2.30;1.00
37408;DHT22;24866;50.248;8.252;2023-03-01T03:11:55;-2.30;1.00
37408;DHT22;24866;50.248;8.252;2023-03-01T03:14:25;-2.60;1.00
37408;DHT22;24866;50.248;8.252;2023-03-01T03:16:56;-2.60;1.00
37408;DHT22;24866;50.248;8.252;2023-03-01T03:19:26;-2.30;1.00
37408;DHT22;24866;50.248;8.252;2023-03-01T03:21:57;-2.30;1.00
37408;DHT22;24866;50.248;8.252;2023-03-01T03:24:27;-2.30;1.00
37408;DHT22;24866;50.248;8.252;2023-03-01T03:27:06;-2.20;1.00
37408;DHT22;24866;50.248;8.252;2023-03-01T03:29:37;-2.70;1.00
37408;DHT22;24866;50.248;8.252;2023-03-01T03:32:08;-2.70;99.90
37408;DHT22;24866;50.248;8.252;2023-03-01T03:34:38;-2.70;94.90
37408;DHT22;24866;50.248;8.252;2023-03-01T03:37:08;-2.80;99.90
37408;DHT22;24866;50.248;8.252;2023-03-01T03:39:59;-2.50;92.20
37408;DHT22;24866;50.248;8.252;2023-03-01T03:42:29;-2.20;1.00
37408;DHT22;24866;50.248;8.252;2023-03-01T03:44:59;-2.10;1.00
37408;DHT22;24866;50.248;8.252;2023-03-01T03:47:31;-2.00;1.00
37408;DHT22;24866;50.248;8.252;2023-03-01T03:50:01;-1.90;1.00
37408;DHT22;24866;50.248;8.252;2023-03-01T03:52:30;-1.90;1.00
37408;DHT22;24866;50.248;8.252;2023-03-01T03:55:00;-2.00;1.00
37408;DHT22;24866;50.248;8.252;2023-03-01T03:57:30;-2.20;1.00
37408;DHT22;24866;50.248;8.252;2023-03-01T04:00:00;-2.30;1.00
37408;DHT22;24866;50.248;8.252;2023-03-01T04:02:33;-2.40;1.00
37408;DHT22;24866;50.248;8.252;2023-03-01T04:05:04;-2.60;75.40
37408;DHT22;24866;50.248;8.252;2023-03-01T04:07:34;-2.70;99.90
37408;DHT22;24866;50.248;8.252;2023-03-01T04:10:06;-2.70;99.90
37408;DHT22;24866;50.248;8.252;2023-03-01T04:12:36;-2.70;41.70
37408;DHT22;24866;50.248;8.252;2023-03-01T04:15:07;-2.90;99.90
37408;DHT22;24866;50.248;8.252;2023-03-01T04:17:44;-2.80;99.90
37408;DHT22;24866;50.248;8.252;2023-03-01T04:20:19;-2.70;99.90
37408;DHT22;24866;50.248;8.252;2023-03-01T04:22:57;-2.70;99.90
37408;DHT22;24866;50.248;8.252;2023-03-01T04:25:27;-2.70;99.90
37408;DHT22;24866;50.248;8.252;2023-03-01T04:27:57;-2.50;99.90
37408;DHT22;24866;50.248;8.252;2023-03-01T04:30:27;-2.30;99.90
37408;DHT22;24866;50.248;8.252;2023-03-01T04:32:59;-2.50;99.90
37408;DHT22;24866;50.248;8.252;2023-03-01T04:35:29;-2.50;99.90
37408;DHT22;24866;50.248;8.252;2023-03-01T04:37:59;-2.40;99.90
37408;DHT22;24866;50.248;8.252;2023-03-01T04:40:29;-2.50;99.90
37408;DHT22;24866;50.248;8.252;2023-03-01T04:42:59;-2.70;99.90
37408;DHT22;24866;50.248;8.252;2023-03-01T04:45:31;-3.00;99.90
37408;DHT22;24866;50.248;8.252;2023-03-01T04:48:04;-2.90;99.90
37408;DHT22;24866;50.248;8.252;2023-03-01T04:50:35;-2.90;99.90
37408;DHT22;24866;50.248;8.252;2023-03-01T04:53:05;-3.00;99.90
37408;DHT22;24866;50.248;8.252;2023-03-01T04:55:35;-3.10;1.00
37408;DHT22;24866;50.248;8.252;2023-03-01T04:58:05;-3.00;99.90
37408;DHT22;24866;50.248;8.252;2023-03-01T05:00:35;-3.00;99.90
37408;DHT22;24866;50.248;8.252;2023-03-01T05:03:08;-2.90;99.90
37408;DHT22;24866;50.248;8.252;2023-03-01T05:05:38;-2.90;99.90
37408;DHT22;24866;50.248;8.252;2023-03-01T05:08:08;-2.70;99.90
37408;DHT22;24866;50.248;8.252;2023-03-01T05:10:48;-2.70;99.90
37408;DHT22;24866;50.248;8.252;2023-03-01T05:13:19;-2.60;99.90
37408;DHT22;24866;50.248;8.252;2023-03-01T05:15:55;-2.70;99.90
37408;DHT22;24866;50.248;8.252;2023-03-01T05:18:27;-2.50;99.90
37408;DHT22;24866;50.248;8.252;2023-03-01T05:21:02;-2.60;99.90
37408;DHT22;24866;50.248;8.252;2023-03-01T05:23:33;-2.70;99.90
37408;DHT22;24866;50.248;8.252;2023-03-01T05:26:05;-2.70;99.90
37408;DHT22;24866;50.248;8.252;2023-03-01T05:28:35;-2.70;99.90
37408;DHT22;24866;50.248;8.252;2023-03-01T05:31:06;-2.70;99.90
37408;DHT22;24866;50.248;8.252;2023-03-01T05:33:40;-2.90;99.90
37408;DHT22;24866;50.248;8.252;2023-03-01T05:36:10;-2.70;99.90
37408;DHT22;24866;50.248;8.252;2023-03-01T05:38:40;-2.80;99.90
37408;DHT22;24866;50.248;8.252;2023-03-01T05:41:14;-2.80;99.90
37408;DHT22;24866;50.248;8.252;2023-03-01T05:43:44;-2.80;99.90
37408;DHT22;24866;50.248;8.252;2023-03-01T05:46:14;-3.10;99.90
37408;DHT22;24866;50.248;8.252;2023-03-01T05:48:45;-3.30;99.90
37408;DHT22;24866;50.248;8.252;2023-03-01T05:51:16;-3.30;1.00
37408;DHT22;24866;50.248;8.252;2023-03-01T05:53:47;-3.00;1.00
37408;DHT22;24866;50.248;8.252;2023-03-01T05:56:17;-3.00;1.00
37408;DHT22;24866;50.248;8.252;2023-03-01T05:58:53;-2.90;1.00
37408;DHT22;24866;50.248;8.252;2023-03-01T06:01:25;-2.90;1.00
37408;DHT22;24866;50.248;8.252;2023-03-01T06:03:56;-2.90;1.00
37408;DHT22;24866;50.248;8.252;2023-03-01T06:06:27;-3.00;1.00
37408;DHT22;24866;50.248;8.252;2023-03-01T06:08:57;-3.10;1.00
37408;DHT22;24866;50.248;8.252;2023-03-01T06:11:27;-3.00;1.00
37408;DHT22;24866;50.248;8.252;2023-03-01T06:13:59;-2.90;1.00
37408;DHT22;24866;50.248;8.252;2023-03-01T06:16:32;-2.90;1.00
37408;DHT22;24866;50.248;8.252;2023-03-01T06:19:05;-2.80;1.00
37408;DHT22;24866;50.248;8.252;2023-03-01T06:21:35;-2.70;1.00
37408;DHT22;24866;50.248;8.252;2023-03-01T06:24:06;-2.60;1.00
37408;DHT22;24866;50.248;8.252;2023-03-01T06:26:36;-2.60;1.00
37408;DHT22;24866;50.248;8.252;2023-03-01T06:29:06;-2.80;1.00
37408;DHT22;24866;50.248;8.252;2023-03-01T06:31:37;-2.80;1.00
37408;DHT22;24866;50.248;8.252;2023-03-01T06:34:08;-2.70;1.00
37408;DHT22;24866;50.248;8.252;2023-03-01T06:36:42;-2.60;1.00
37408;DHT22;24866;50.248;8.252;2023-03-01T06:39:12;-2.60;13.40
37408;DHT22;24866;50.248;8.252;2023-03-01T06:41:45;-2.50;1.00
37408;DHT22;24866;50.248;8.252;2023-03-01T06:44:15;-2.40;50.10
37408;DHT22;24866;50.248;8.252;2023-03-01T06:46:45;-2.30;29.20
37408;DHT22;24866;50.248;8.252;2023-03-01T06:49:16;-2.20;54.90
37408;DHT22;24866;50.248;8.252;2023-03-01T06:51:46;-2.30;40.80
37408;DHT22;24866;50.248;8.252;2023-03-01T06:54:16;-2.30;78.50
37408;DHT22;24866;50.248;8.252;2023-03-01T06:56:47;-2.30;99.90
37408;DHT22;24866;50.248;8.252;2023-03-01T06:59:18;-2.30;99.90
37408;DHT22;24866;50.248;8.252;2023-03-01T07:01:48;-2.20;99.90
37408;DHT22;24866;50.248;8.252;2023-03-01T07:04:19;-2.10;99.90
37408;DHT22;24866;50.248;8.252;2023-03-01T07:06:50;-2.00;99.90
37408;DHT22;24866;50.248;8.252;2023-03-01T07:09:24;-2.10;99.90
37408;DHT22;24866;50.248;8.252;2023-03-01T07:11:54;-2.10;99.90
37408;DHT22;24866;50.248;8.252;2023-03-01T07:14:24;-2.00;99.90
37408;DHT22;24866;50.248;8.252;2023-03-01T07:16:55;-1.90;99.90
37408;DHT22;24866;50.248;8.252;2023-03-01T07:19:26;-1.90;99.90
37408;DHT22;24866;50.248;8.252;2023-03-01T07:21:57;-1.80;99.90
37408;DHT22;24866;50.248;8.252;2023-03-01T07:24:27;-1.70;99.90
37408;DHT22;24866;50.248;8.252;2023-03-01T07:26:57;-1.70;99.90
37408;DHT22;24866;50.248;8.252;2023-03-01T07:29:27;-1.50;99.90
37408;DHT22;24866;50.248;8.252;2023-03-01T07:31:58;-1.30;99.90
37408;DHT22;24866;50.248;8.252;2023-03-01T07:34:30;-1.30;99.90
37408;DHT22;24866;50.248;8.252;2023-03-01T07:37:00;-1.30;99.90
37408;DHT22;24866;50.248;8.252;2023-03-01T07:39:31;-1.20;99.90
37408;DHT22;24866;50.248;8.252;2023-03-01T07:42:01;-1.00;99.90
37408;DHT22;24866;50.248;8.252;2023-03-01T07:44:31;-0.90;99.90
37408;DHT22;24866;50.248;8.252;2023-03-01T07:47:01;-0.60;1.00
37408;DHT22;24866;50.248;8.252;2023-03-01T07:49:33;-0.40;1.00
37408;DHT22;24866;50.248;8.252;2023-03-01T07:52:03;-0.20;1.00
37408;DHT22;24866;50.248;8.252;2023-03-01T07:54:33;-0.10;99.90
37408;DHT22;24866;50.248;8.252;2023-03-01T07:57:03;0.20;1.00
37408;DHT22;24866;50.248;8.252;2023-03-01T07:59:34;0.20;1.00
37408;DHT22;24866;50.248;8.252;2023-03-01T08:02:04;-0.10;1.00
37408;DHT22;24866;50.248;8.252;2023-03-01T08:04:36;0.10;1.00
37408;DHT22;24866;50.248;8.252;2023-03-01T08:07:06;0.40;1.00
37408;DHT22;24866;50.248;8.252;2023-03-01T08:09:36;0.50;1.00
37408;DHT22;24866;50.248;8.252;2023-03-01T08:12:06;1.00;1.00
37408;DHT22;24866;50.248;8.252;2023-03-01T08:14:36;0.70;1.00
37408;DHT22;24866;50.248;8.252;2023-03-01T08:17:06;1.10;1.00
37408;DHT22;24866;50.248;8.252;2023-03-01T08:19:38;0.60;1.00
37408;DHT22;24866;50.248;8.252;2023-03-01T08:22:08;0.80;1.00
37408;DHT22;24866;50.248;8.252;2023-03-01T08:24:38;1.20;1.00
37408;DHT22;24866;50.248;8.252;2023-03-01T08:27:07;1.10;1.00
37408;DHT22;24866;50.248;8.252;2023-03-01T08:29:37;1.80;1.00
37408;DHT22;24866;50.248;8.252;2023-03-01T08:32:08;1.70;1.00
37408;DHT22;24866;50.248;8.252;2023-03-01T08:34:39;2.00;77.70
37408;DHT22;24866;50.248;8.252;2023-03-01T08:37:09;2.20;99.90
37408;DHT22;24866;50.248;8.252;2023-03-01T08:39:39;2.30;99.90
37408;DHT22;24866;50.248;8.252;2023-03-01T08:42:09;2.40;99.90
37408;DHT22;24866;50.248;8.252;2023-03-01T08:44:39;2.40;99.90
37408;DHT22;24866;50.248;8.252;2023-03-01T08:47:09;2.70;99.90
37408;DHT22;24866;50.248;8.252;2023-03-01T08:49:41;2.60;99.90
37408;DHT22;24866;50.248;8.252;2023-03-01T08:52:11;2.60;99.90
37408;DHT22;24866;50.248;8.252;2023-03-01T08:54:41;2.70;99.90
37408;DHT22;24866;50.248;8.252;2023-03-01T08:57:11;2.70;99.90
37408;DHT22;24866;50.248;8.252;2023-03-01T08:59:41;3.00;99.90
37408;DHT22;24866;50.248;8.252;2023-03-01T09:02:15;2.70;99.90
37408;DHT22;24866;50.248;8.252;2023-03-01T09:04:46;2.90;99.90
37408;DHT22;24866;50.248;8.252;2023-03-01T09:07:17;3.10;99.90
37408;DHT22;24866;50.248;8.252;2023-03-01T09:09:47;3.10;99.90
37408;DHT22;24866;50.248;8.252;2023-03-01T09:12:17;3.30;99.90
37408;DHT22;24866;50.248;8.252;2023-03-01T09:14:47;3.90;1.00
37408;DHT22;24866;50.248;8.252;2023-03-01T09:17:17;4.00;1.00
37408;DHT22;24866;50.248;8.252;2023-03-01T09:19:51;3.90;1.00
37408;DHT22;24866;50.248;8.252;2023-03-01T09:22:21;3.90;1.00
37408;DHT22;24866;50.248;8.252;2023-03-01T09:24:51;3.80;1.00
37408;DHT22;24866;50.248;8.252;2023-03-01T09:27:21;3.70;1.00
37408;DHT22;24866;50.248;8.252;2023-03-01T09:29:51;3.90;1.00
37408;DHT22;24866;50.248;8.252;2023-03-01T09:32:22;3.90;1.00
37408;DHT22;24866;50.248;8.252;2023-03-01T09:34:53;3.80;1.00
37408;DHT22;24866;50.248;8.252;2023-03-01T09:37:36;4.20;1.00
37408;DHT22;24866;50.248;8.252;2023-03-01T09:40:14;4.20;1.00
37408;DHT22;24866;50.248;8.252;2023-03-01T09:42:52;4.40;1.00
37408;DHT22;24866;50.248;8.252;2023-03-01T09:45:32;4.50;1.00
37408;DHT22;24866;50.248;8.252;2023-03-01T09:48:05;5.00;1.00
37408;DHT22;24866;50.248;8.252;2023-03-01T09:50:41;5.10;1.00
37408;DHT22;24866;50.248;8.252;2023-03-01T09:53:15;4.80;1.00
37408;DHT22;24866;50.248;8.252;2023-03-01T09:55:49;5.10;1.00
37408;DHT22;24866;50.248;8.252;2023-03-01T09:58:40;5.10;1.00
37408;DHT22;24866;50.248;8.252;2023-03-01T10:01:27;5.30;1.00
37408;DHT22;24866;50.248;8.252;2023-03-01T10:04:28;5.50;1.00
37408;DHT22;24866;50.248;8.252;2023-03-01T10:07:06;5.60;1.00
37408;DHT22;24866;50.248;8.252;2023-03-01T10:09:43;5.70;1.00
37408;DHT22;24866;50.248;8.252;2023-03-01T10:12:16;5.90;1.00
37408;DHT22;24866;50.248;8.252;2023-03-01T10:14:51;6.20;1.00
37408;DHT22;24866;50.248;8.252;2023-03-01T10:17:28;6.30;1.00
37408;DHT22;24866;50.248;8.252;2023-03-01T10:20:16;6.40;1.00
37408;DHT22;24866;50.248;8.252;2023-03-01T10:22:49;6.20;1.00
37408;DHT22;24866;50.248;8.252;2023-03-01T10:25:31;5.50;1.00
37408;DHT22;24866;50.248;8.252;2023-03-01T10:28:12;5.20;1.00
37408;DHT22;24866;50.248;8.252;2023-03-01T10:30:46;6.10;1.00
37408;DHT22;24866;50.248;8.252;2023-03-01T10:33:19;6.20;1.00
37408;DHT22;24866;50.248;8.252;2023-03-01T10:35:51;6.00;1.00
37408;DHT22;24866;50.248;8.252;2023-03-01T10:38:22;5.60;1.00
37408;DHT22;24866;50.248;8.252;2023-03-01T10:40:57;5.60;1.00
37408;DHT22;24866;50.248;8.252;2023-03-01T10:43:40;5.80;1.00
37408;DHT22;24866;50.248;8.252;2023-03-01T10:46:24;4.90;99.90
37408;DHT22;24866;50.248;8.252;2023-03-01T10:49:13;5.70;1.00
37408;DHT22;24866;50.248;8.252;2023-03-01T10:51:45;5.90;1.00
37408;DHT22;24866;50.248;8.252;2023-03-01T10:54:27;6.30;1.00
37408;DHT22;24866;50.248;8.252;2023-03-01T10:56:59;5.90;1.00
37408;DHT22;24866;50.248;8.252;2023-03-01T10:59:32;5.90;1.00
37408;DHT22;24866;50.248;8.252;2023-03-01T11:02:14;5.80;1.00
37408;DHT22;24866;50.248;8.252;2023-03-01T11:04:58;6.00;1.00
37408;DHT22;24866;50.248;8.252;2023-03-01T11:07:28;6.60;1.00
37408;DHT22;24866;50.248;8.252;2023-03-01T11:10:01;6.50;1.00
37408;DHT22;24866;50.248;8.252;2023-03-01T11:12:40;6.90;1.00
37408;DHT22;24866;50.248;8.252;2023-03-01T11:15:20;6.50;1.00
37408;DHT22;24866;50.248;8.252;2023-03-01T11:17:51;7.30;1.00
37408;DHT22;24866;50.248;8.252;2023-03-01T11:20:29;7.70;1.00
37408;DHT22;24866;50.248;8.252;2023-03-01T11:23:02;6.70;1.00
37408;DHT22;24866;50.248;8.252;2023-03-01T11:25:37;6.90;1.00
37408;DHT22;24866;50.248;8.252;2023-03-01T11:28:12;6.70;1.00
37408;DHT22;24866;50.248;8.252;2023-03-01T11:30:49;7.00;1.00
37408;DHT22;24866;50.248;8.252;2023-03-01T11:33:35;7.20;1.00
37408;DHT22;24866;50.248;8.252;2023-03-01T11:36:19;7.80;1.00
37408;DHT22;24866;50.248;8.252;2023-03-01T11:38:55;7.90;1.00
37408;DHT22;24866;50.248;8.252;2023-03-01T11:41:30;8.00;1.00
37408;DHT22;24866;50.248;8.252;2023-03-01T11:44:03;8.80;1.00
37408;DHT22;24866;50.248;8.252;2023-03-01T11:46:51;8.90;1.00
37408;DHT22;24866;50.248;8.252;2023-03-01T11:52:41;8.80;1.00
37408;DHT22;24866;50.248;8.252;2023-03-01T11:55:27;8.10;1.00
37408;DHT22;24866;50.248;8.252;2023-03-01T11:58:13;8.30;1.00
37408;DHT22;24866;50.248;8.252;2023-03-01T12:01:01;8.90;1.00
37408;DHT22;24866;50.248;8.252;2023-03-01T12:06:48;8.60;1.00
37408;DHT22;24866;50.248;8.252;2023-03-01T12:09:29;9.00;1.00
37408;DHT22;24866;50.248;8.252;2023-03-01T12:12:16;8.60;1.00
37408;DHT22;24866;50.248;8.252;2023-03-01T12:14:59;8.70;1.00
37408;DHT22;24866;50.248;8.252;2023-03-01T12:20:34;9.10;1.00
37408;DHT22;24866;50.248;8.252;2023-03-01T12:23:25;9.80;1.00
37408;DHT22;24866;50.248;8.252;2023-03-01T12:26:08;9.20;1.00
37408;DHT22;24866;50.248;8.252;2023-03-01T12:28:52;8.90;99.90
37408;DHT22;24866;50.248;8.252;2023-03-01T12:34:51;8.90;99.90
37408;DHT22;24866;50.248;8.252;2023-03-01T12:37:31;8.80;99.90
37408;DHT22;24866;50.248;8.252;2023-03-01T12:40:20;8.50;99.90
37408;DHT22;24866;50.248;8.252;2023-03-01T12:43:01;8.70;99.90
37408;DHT22;24866;50.248;8.252;2023-03-01T12:45:59;8.60;99.90
37408;DHT22;24866;50.248;8.252;2023-03-01T12:48:42;8.10;99.90
37408;DHT22;24866;50.248;8.252;2023-03-01T12:51:17;8.00;99.90
37408;DHT22;24866;50.248;8.252;2023-03-01T12:53:50;8.40;99.90
37408;DHT22;24866;50.248;8.252;2023-03-01T12:56:23;8.70;99.90
37408;DHT22;24866;50.248;8.252;2023-03-01T12:59:01;8.60;99.90
37408;DHT22;24866;50.248;8.252;2023-03-01T13:01:42;8.20;64.20
37408;DHT22;24866;50.248;8.252;2023-03-01T13:04:27;8.30;49.40
37408;DHT22;24866;50.248;8.252;2023-03-01T13:07:09;9.00;99.90
37408;DHT22;24866;50.248;8.252;2023-03-01T13:09:43;8.80;95.00
37408;DHT22;24866;50.248;8.252;2023-03-01T13:12:48;8.70;55.30
37408;DHT22;24866;50.248;8.252;2023-03-01T13:15:30;8.20;1.00
37408;DHT22;24866;50.248;8.252;2023-03-01T13:18:02;7.90;1.00
37408;DHT22;24866;50.248;8.252;2023-03-01T13:20:47;7.90;1.00
37408;DHT22;24866;50.248;8.252;2023-03-01T13:23:28;8.30;1.00
37408;DHT22;24866;50.248;8.252;2023-03-01T13:26:09;8.10;1.00
37408;DHT22;24866;50.248;8.252;2023-03-01T13:28:47;8.30;1.00
37408;DHT22;24866;50.248;8.252;2023-03-01T13:34:53;8.30;1.00
37408;DHT22;24866;50.248;8.252;2023-03-01T13:37:26;8.60;1.00
37408;DHT22;24866;50.248;8.252;2023-03-01T13:40:02;8.40;1.00
37408;DHT22;24866;50.248;8.252;2023-03-01T13:42:37;8.30;1.00
37408;DHT22;24866;50.248;8.252;2023-03-01T13:45:20;8.20;1.00
37408;DHT22;24866;50.248;8.252;2023-03-01T13:47:54;8.60;1.00
37408;DHT22;24866;50.248;8.252;2023-03-01T13:50:29;9.40;1.00
37408;DHT22;24866;50.248;8.252;2023-03-01T13:53:03;9.30;1.00
37408;DHT22;24866;50.248;8.252;2023-03-01T13:55:43;8.60;1.00
37408;DHT22;24866;50.248;8.252;2023-03-01T13:58:22;8.10;1.00
37408;DHT22;24866;50.248;8.252;2023-03-01T14:00:59;8.50;1.00
37408;DHT22;24866;50.248;8.252;2023-03-01T14:03:31;8.40;1.00
37408;DHT22;24866;50.248;8.252;2023-03-01T14:06:06;8.40;1.00
37408;DHT22;24866;50.248;8.252;2023-03-01T14:08:37;8.20;1.00
37408;DHT22;24866;50.248;8.252;2023-03-01T14:11:24;8.20;1.00
37408;DHT22;24866;50.248;8.252;2023-03-01T14:14:29;8.10;1.00
37408;DHT22;24866;50.248;8.252;2023-03-01T14:20:12;8.20;1.00
37408;DHT22;24866;50.248;8.252;2023-03-01T14:22:45;8.50;1.00
37408;DHT22;24866;50.248;8.252;2023-03-01T14:25:23;8.40;1.00
37408;DHT22;24866;50.248;8.252;2023-03-01T14:28:02;8.00;1.00
37408;DHT22;24866;50.248;8.252;2023-03-01T14:30:38;8.40;1.00
37408;DHT22;24866;50.248;8.252;2023-03-01T14:33:20;8.60;1.00
37408;DHT22;24866;50.248;8.252;2023-03-01T14:35:56;8.10;1.00
37408;DHT22;24866;50.248;8.252;2023-03-01T14:38:34;7.90;1.00
37408;DHT22;24866;50.248;8.252;2023-03-01T14:41:07;8.00;1.00
37408;DHT22;24866;50.248;8.252;2023-03-01T14:43:44;8.30;1.00
37408;DHT22;24866;50.248;8.252;2023-03-01T14:46:20;8.30;1.00
37408;DHT22;24866;50.248;8.252;2023-03-01T14:48:51;7.80;99.90
37408;DHT22;24866;50.248;8.252;2023-03-01T14:51:23;7.80;99.90
37408;DHT22;24866;50.248;8.252;2023-03-01T14:53:53;8.00;99.90
37408;DHT22;24866;50.248;8.252;2023-03-01T14:56:23;8.10;99.90
37408;DHT22;24866;50.248;8.252;2023-03-01T14:58:58;8.40;99.90
37408;DHT22;24866;50.248;8.252;2023-03-01T15:01:28;8.10;99.90
37408;DHT22;24866;50.248;8.252;2023-03-01T15:04:01;8.00;99.90
37408;DHT22;24866;50.248;8.252;2023-03-01T15:06:32;8.00;99.90
37408;DHT22;24866;50.248;8.252;2023-03-01T15:09:03;7.80;99.90
37408;DHT22;24866;50.248;8.252;2023-03-01T15:11:34;7.90;99.90
37408;DHT22;24866;50.248;8.252;2023-03-01T15:14:38;8.10;99.90
37408;DHT22;24866;50.248;8.252;2023-03-01T15:17:21;7.90;99.90
37408;DHT22;24866;50.248;8.252;2023-03-01T15:19:53;7.50;99.90
37408;DHT22;24866;50.248;8.252;2023-03-01T15:22:26;7.60;99.90
37408;DHT22;24866;50.248;8.252;2023-03-01T15:24:56;7.50;99.90
37408;DHT22;24866;50.248;8.252;2023-03-01T15:27:27;7.40;99.90
37408;DHT22;24866;50.248;8.252;2023-03-01T15:30:00;7.50;99.90
37408;DHT22;24866;50.248;8.252;2023-03-01T15:32:33;7.60;99.90
37408;DHT22;24866;50.248;8.252;2023-03-01T15:35:34;7.60;99.90
37408;DHT22;24866;50.248;8.252;2023-03-01T15:38:25;7.60;99.90
37408;DHT22;24866;50.248;8.252;2023-03-01T15:40:57;7.80;99.90
37408;DHT22;24866;50.248;8.252;2023-03-01T15:43:40;7.60;99.90
37408;DHT22;24866;50.248;8.252;2023-03-01T15:46:21;7.60;99.90
37408;DHT22;24866;50.248;8.252;2023-03-01T15:48:56;7.80;99.90
37408;DHT22;24866;50.248;8.252;2023-03-01T15:51:32;7.60;99.90
37408;DHT22;24866;50.248;8.252;2023-03-01T15:54:06;7.60;99.90
37408;DHT22;24866;50.248;8.252;2023-03-01T15:56:36;7.70;99.90
37408;DHT22;24866;50.248;8.252;2023-03-01T15:59:10;7.70;99.90
37408;DHT22;24866;50.248;8.252;2023-03-01T16:01:44;7.50;99.90
37408;DHT22;24866;50.248;8.252;2023-03-01T16:04:18;7.50;99.90
37408;DHT22;24866;50.248;8.252;2023-03-01T16:06:52;7.70;99.90
37408;DHT22;24866;50.248;8.252;2023-03-01T16:09:24;7.80;99.90
37408;DHT22;24866;50.248;8.252;2023-03-01T16:11:55;7.90;99.90
37408;DHT22;24866;50.248;8.252;2023-03-01T16:14:25;8.00;99.90
37408;DHT22;24866;50.248;8.252;2023-03-01T16:16:57;8.00;99.90
37408;DHT22;24866;50.248;8.252;2023-03-01T16:19:28;8.10;99.90
37408;DHT22;24866;50.248;8.252;2023-03-01T16:21:59;7.80;99.90
37408;DHT22;24866;50.248;8.252;2023-03-01T16:24:29;8.00;99.90
37408;DHT22;24866;50.248;8.252;2023-03-01T16:26:59;7.60;57.60
37408;DHT22;24866;50.248;8.252;2023-03-01T16:29:30;7.20;1.00
37408;DHT22;24866;50.248;8.252;2023-03-01T16:32:01;6.70;1.00
37408;DHT22;24866;50.248;8.252;2023-03-01T16:34:32;6.60;1.00
37408;DHT22;24866;50.248;8.252;2023-03-01T16:37:03;6.60;1.00
37408;DHT22;24866;50.248;8.252;2023-03-01T16:39:33;6.30;1.00
37408;DHT22;24866;50.248;8.252;2023-03-01T16:42:04;6.20;1.00
37408;DHT22;24866;50.248;8.252;2023-03-01T16:44:35;6.00;1.00
37408;DHT22;24866;50.248;8.252;2023-03-01T16:47:08;6.10;1.00
37408;DHT22;24866;50.248;8.252;2023-03-01T16:49:38;5.90;1.00